createdAt,value
2023-03-31T00:02:14.006Z,99982.63
2023-03-31T00:04:46.448Z,99968.47
2023-03-31T00:07:15.022Z,99975.81
2023-03-31T00:09:46.089Z,99967.94
2023-03-31T00:12:14.759Z,99977.69
2023-03-31T00:14:42.292Z,99975.13
2023-03-31T00:17:10.660Z,99972.59
2023-03-31T00:19:37.357Z,99968.91
2023-03-31T00:22:05.471Z,99966.22
2023-03-31T00:24:33.205Z,99961.97
2023-03-31T00:27:04.909Z,99963.09
2023-03-31T00:29:33.670Z,99960.84
2023-03-31T00:32:00.616Z,99964.97
2023-03-31T00:34:27.799Z,99956.91
2023-03-31T00:36:56.683Z,99953.81
2023-03-31T00:39:24.728Z,99947.16
2023-03-31T00:41:51.407Z,99953.66
2023-03-31T00:44:27.723Z,99944.63
2023-03-31T00:47:02.266Z,99943.75
2023-03-31T00:49:33.822Z,99944.75
2023-03-31T00:52:06.626Z,99944.91
2023-03-31T00:54:35.976Z,99943.47
2023-03-31T00:57:06.777Z,99943.66
2023-03-31T00:59:39.614Z,99953.13
2023-03-31T01:02:06.812Z,99948.19
2023-03-31T01:04:43.054Z,99944.94
2023-03-31T01:07:25.793Z,99939.00
2023-03-31T01:09:55.726Z,99939.97
2023-03-31T01:12:23.218Z,99943.09
2023-03-31T01:14:51.188Z,99937.28
2023-03-31T01:17:21.626Z,99937.00
2023-03-31T01:20:07.117Z,99943.09
2023-03-31T01:23:07.955Z,99938.53
2023-03-31T01:26:02.794Z,99932.34
2023-03-31T01:28:38.249Z,99922.44
2023-03-31T01:31:16.936Z,99941.53
2023-03-31T01:33:59.468Z,99931.78
2023-03-31T01:37:04.741Z,99938.84
2023-03-31T01:39:46.169Z,99930.47
2023-03-31T01:42:21.739Z,99934.31
2023-03-31T01:45:19.982Z,99926.97
2023-03-31T01:47:59.768Z,99921.47
2023-03-31T01:50:35.375Z,99918.78
2023-03-31T01:53:15.519Z,99925.84
2023-03-31T01:56:09.562Z,99929.09
2023-03-31T01:58:44.312Z,99926.41
2023-03-31T02:01:34.488Z,99924.41
2023-03-31T02:04:14.765Z,99921.44
2023-03-31T02:06:46.877Z,99925.81
2023-03-31T02:09:18.353Z,99922.31
2023-03-31T02:11:47.018Z,99917.06
2023-03-31T02:14:18.875Z,99921.31
2023-03-31T02:16:47.604Z,99923.13
2023-03-31T02:19:18.830Z,99930.50
2023-03-31T02:21:49.805Z,99919.75
2023-03-31T02:24:19.362Z,99918.06
2023-03-31T02:26:53.875Z,99922.56
2023-03-31T02:29:20.923Z,99917.63
2023-03-31T02:31:50.618Z,99922.16
2023-03-31T02:34:17.339Z,99921.31
2023-03-31T02:36:45.723Z,99915.09
2023-03-31T02:39:18.057Z,99911.69
2023-03-31T02:41:45.124Z,99907.47
2023-03-31T02:44:12.468Z,99911.13
2023-03-31T02:46:41.044Z,99899.66
2023-03-31T02:49:12.013Z,99905.34
2023-03-31T02:52:06.711Z,99917.34
2023-03-31T02:55:11.354Z,99911.41
2023-03-31T02:57:47.123Z,99908.16
2023-03-31T03:00:14.260Z,99899.25
2023-03-31T03:03:14.668Z,99902.78
2023-03-31T03:05:49.960Z,99900.50
2023-03-31T03:08:49.156Z,99904.31
2023-03-31T03:11:27.617Z,99900.25
2023-03-31T03:14:17.345Z,99903.91
2023-03-31T03:16:49.966Z,99897.00
2023-03-31T03:19:22.359Z,99901.19
2023-03-31T03:21:49.031Z,99893.00
2023-03-31T03:24:17.080Z,99900.06
2023-03-31T03:26:44.993Z,99898.91
2023-03-31T03:29:15.266Z,99897.16
2023-03-31T03:31:42.771Z,99897.09
2023-03-31T03:34:09.825Z,99903.25
2023-03-31T03:36:37.877Z,99910.28
2023-03-31T03:39:07.656Z,99902.94
2023-03-31T03:41:34.604Z,99896.84
2023-03-31T03:44:01.490Z,99902.63
2023-03-31T03:46:28.235Z,99904.00
2023-03-31T03:48:55.997Z,99906.94
2023-03-31T03:51:23.263Z,99903.69
2023-03-31T03:53:49.959Z,99901.78
2023-03-31T03:56:16.570Z,99917.69
2023-03-31T03:58:43.150Z,99913.69
2023-03-31T04:01:09.782Z,99916.06
2023-03-31T04:03:36.475Z,99912.22
2023-03-31T04:06:03.158Z,99908.22
2023-03-31T04:08:29.706Z,99918.94
2023-03-31T04:10:56.591Z,99900.28
2023-03-31T04:13:23.168Z,99901.03
2023-03-31T04:15:49.825Z,99899.97
2023-03-31T04:18:25.673Z,99901.34
2023-03-31T04:21:16.847Z,99898.06
2023-03-31T04:23:46.874Z,99901.53
2023-03-31T04:26:15.392Z,99899.97
2023-03-31T04:28:50.737Z,99904.84
2023-03-31T04:31:25.342Z,99903.91
2023-03-31T04:33:55.579Z,99911.22
2023-03-31T04:36:22.572Z,99905.53
2023-03-31T04:38:51.004Z,99903.72
2023-03-31T04:41:17.988Z,99903.56
2023-03-31T04:43:45.397Z,99903.81
2023-03-31T04:46:12.203Z,99907.22
2023-03-31T04:48:39.060Z,99907.81
2023-03-31T04:51:06.303Z,99907.22
2023-03-31T04:53:32.968Z,99905.53
2023-03-31T04:55:59.721Z,99900.88
2023-03-31T04:58:26.308Z,99894.69
2023-03-31T05:00:53.210Z,99892.84
2023-03-31T05:03:20.732Z,99893.94
2023-03-31T05:05:48.527Z,99888.75
2023-03-31T05:08:15.376Z,99890.56
2023-03-31T05:10:42.008Z,99885.81
2023-03-31T05:13:11.389Z,99872.78
2023-03-31T05:15:39.575Z,99877.59
2023-03-31T05:18:07.256Z,99878.66
2023-03-31T05:20:33.941Z,99882.88
2023-03-31T05:23:00.634Z,99874.03
2023-03-31T05:25:32.619Z,99882.00
2023-03-31T05:28:00.116Z,99886.47
2023-03-31T05:30:27.851Z,99872.13
2023-03-31T05:32:54.903Z,99866.81
2023-03-31T05:35:21.894Z,99866.03
2023-03-31T05:37:48.649Z,99862.41
2023-03-31T05:40:15.404Z,99855.94
2023-03-31T05:42:42.050Z,99868.25
2023-03-31T05:45:09.457Z,99866.50
2023-03-31T05:47:36.776Z,99860.03
2023-03-31T05:50:07.785Z,99861.75
2023-03-31T05:52:35.624Z,99855.84
2023-03-31T05:55:02.551Z,99857.41
2023-03-31T05:57:29.145Z,99856.41
2023-03-31T05:59:55.839Z,99852.59
2023-03-31T06:02:22.595Z,99857.69
2023-03-31T06:04:50.253Z,99854.16
2023-03-31T06:07:17.895Z,99853.25
2023-03-31T06:09:45.724Z,99847.03
2023-03-31T06:12:12.300Z,99849.97
2023-03-31T06:14:38.905Z,99847.56
2023-03-31T06:17:05.462Z,99844.97
2023-03-31T06:19:32.060Z,99842.41
2023-03-31T06:21:58.689Z,99838.53
2023-03-31T06:24:25.512Z,99833.25
2023-03-31T06:26:53.768Z,99834.06
2023-03-31T06:29:20.808Z,99833.91
2023-03-31T06:31:47.424Z,99834.97
2023-03-31T06:34:14.039Z,99829.00
2023-03-31T06:36:41.446Z,99832.63
2023-03-31T06:39:08.038Z,99835.25
2023-03-31T06:41:34.692Z,99838.03
2023-03-31T06:44:01.268Z,99832.72
2023-03-31T06:46:27.958Z,99834.38
2023-03-31T06:48:54.586Z,99834.28
2023-03-31T06:51:21.194Z,99820.03
2023-03-31T06:53:47.784Z,99819.09
2023-03-31T06:56:14.474Z,99823.56
2023-03-31T06:58:41.059Z,99833.38
2023-03-31T07:01:08.245Z,99836.53
2023-03-31T07:03:35.618Z,99856.19
2023-03-31T07:06:02.310Z,99848.66
2023-03-31T07:08:28.910Z,99839.78
2023-03-31T07:10:58.024Z,99846.72
2023-03-31T07:13:25.840Z,99842.25
2023-03-31T07:15:52.470Z,99848.69
2023-03-31T07:18:19.676Z,99833.38
2023-03-31T07:20:50.520Z,99829.72
2023-03-31T07:23:18.537Z,99827.88
2023-03-31T07:25:46.961Z,99828.19
2023-03-31T07:28:13.560Z,99829.06
2023-03-31T07:30:41.371Z,99815.22
2023-03-31T07:33:08.276Z,99817.25
2023-03-31T07:35:38.863Z,99820.00
2023-03-31T07:38:05.709Z,99812.91
2023-03-31T07:40:32.434Z,99810.25
2023-03-31T07:42:59.018Z,99791.84
2023-03-31T07:45:26.855Z,99795.91
2023-03-31T07:47:54.085Z,99786.66
2023-03-31T07:50:21.642Z,99795.25
2023-03-31T07:52:48.402Z,99793.72
2023-03-31T07:55:15.539Z,99792.53
2023-03-31T07:57:43.682Z,99794.91
2023-03-31T08:00:12.693Z,99797.09
2023-03-31T08:02:42.911Z,99795.94
2023-03-31T08:05:12.007Z,99792.03
2023-03-31T08:07:41.764Z,99784.94
2023-03-31T08:10:11.099Z,99783.25
2023-03-31T08:12:37.685Z,99776.50
2023-03-31T08:15:04.965Z,99766.16
2023-03-31T08:17:31.634Z,99763.31
2023-03-31T08:20:01.597Z,99762.78
2023-03-31T08:22:30.604Z,99764.44
2023-03-31T08:24:57.156Z,99764.25
2023-03-31T08:27:23.808Z,99757.66
2023-03-31T08:29:50.421Z,99756.09
2023-03-31T08:32:17.175Z,99743.38
2023-03-31T08:34:43.940Z,99746.06
2023-03-31T08:37:10.548Z,99733.31
2023-03-31T08:39:37.351Z,99735.25
2023-03-31T08:42:20.215Z,99734.69
2023-03-31T08:45:07.245Z,99720.59
2023-03-31T08:47:36.685Z,99729.81
2023-03-31T08:50:11.362Z,99725.69
2023-03-31T08:52:48.016Z,99720.88
2023-03-31T08:55:26.649Z,99704.63
2023-03-31T08:58:01.628Z,99701.09
2023-03-31T09:00:37.741Z,99689.81
2023-03-31T09:03:16.466Z,99685.53
2023-03-31T09:06:13.027Z,99686.47
2023-03-31T09:08:42.159Z,99684.69
2023-03-31T09:11:42.560Z,99678.44
2023-03-31T09:14:12.036Z,99672.63
2023-03-31T09:16:53.816Z,99673.66
2023-03-31T09:19:35.799Z,99664.31
2023-03-31T09:22:05.871Z,99663.16
2023-03-31T09:24:47.665Z,99673.00
2023-03-31T09:27:15.336Z,99660.69
2023-03-31T09:30:09.510Z,99665.38
2023-03-31T09:32:38.312Z,99650.56
2023-03-31T09:35:25.407Z,99649.50
2023-03-31T09:37:54.035Z,99643.50
2023-03-31T09:40:24.143Z,99649.19
2023-03-31T09:43:00.500Z,99639.09
2023-03-31T09:45:27.952Z,99632.13
2023-03-31T09:47:57.469Z,99636.44
2023-03-31T09:50:25.522Z,99649.94
2023-03-31T09:52:55.840Z,99619.94
2023-03-31T09:55:38.144Z,99616.00
2023-03-31T09:58:08.203Z,99614.50
2023-03-31T10:00:35.246Z,99622.94
2023-03-31T10:03:07.411Z,99618.97
2023-03-31T10:05:41.327Z,99604.97
2023-03-31T10:08:17.279Z,99595.84
2023-03-31T10:11:04.196Z,99600.94
2023-03-31T10:13:59.808Z,99596.97
2023-03-31T10:16:45.716Z,99592.44
2023-03-31T10:19:25.998Z,99585.97
2023-03-31T10:22:17.011Z,99584.69
2023-03-31T10:24:45.478Z,99583.88
2023-03-31T10:27:20.140Z,99579.28
2023-03-31T10:29:47.239Z,99567.84
2023-03-31T10:32:16.784Z,99570.97
2023-03-31T10:34:43.740Z,99569.13
2023-03-31T10:37:22.606Z,99557.16
2023-03-31T10:39:57.945Z,99564.00
2023-03-31T10:42:25.675Z,99552.44
2023-03-31T10:45:11.240Z,99554.94
2023-03-31T10:47:40.642Z,99556.16
2023-03-31T10:50:14.899Z,99550.25
2023-03-31T10:52:48.402Z,99551.94
2023-03-31T10:55:24.490Z,99549.66
2023-03-31T10:57:58.909Z,99539.03
2023-03-31T11:00:32.916Z,99538.84
2023-03-31T11:03:11.401Z,99538.69
2023-03-31T11:06:12.299Z,99534.53
2023-03-31T11:08:59.093Z,99522.38
2023-03-31T11:12:10.053Z,99520.06
2023-03-31T11:14:42.625Z,99533.41
2023-03-31T11:17:09.288Z,99509.47
2023-03-31T11:20:07.222Z,99510.47
2023-03-31T11:23:00.311Z,99502.22
2023-03-31T11:25:32.927Z,99490.59
2023-03-31T11:28:20.716Z,99486.28
2023-03-31T11:31:10.323Z,99478.31
2023-03-31T11:33:50.371Z,99472.97
2023-03-31T11:36:58.660Z,99460.56
2023-03-31T11:39:44.904Z,99456.84
2023-03-31T11:42:25.649Z,99444.53
2023-03-31T11:45:02.591Z,99435.78
2023-03-31T11:47:35.067Z,99436.84
2023-03-31T11:50:10.743Z,99434.97
2023-03-31T11:52:45.880Z,99424.09
2023-03-31T11:55:21.562Z,99423.13
2023-03-31T11:58:01.048Z,99419.75
2023-03-31T12:00:36.384Z,99407.38
2023-03-31T12:03:19.825Z,99403.41
2023-03-31T12:05:52.094Z,99390.44
2023-03-31T12:08:36.832Z,99397.78
2023-03-31T12:11:27.780Z,99392.47
2023-03-31T12:14:11.892Z,99382.38
2023-03-31T12:17:10.789Z,99382.44
2023-03-31T12:19:40.356Z,99385.78
2023-03-31T12:22:30.737Z,99377.00
2023-03-31T12:24:57.380Z,99378.44
2023-03-31T12:27:44.576Z,99359.44
2023-03-31T12:30:22.526Z,99358.69
2023-03-31T12:33:19.794Z,99356.19
2023-03-31T12:35:55.423Z,99355.09
2023-03-31T12:38:55.781Z,99361.06
2023-03-31T12:41:28.381Z,99342.47
2023-03-31T12:44:13.073Z,99346.06
2023-03-31T12:46:42.693Z,99341.25
2023-03-31T12:49:37.079Z,99345.00
2023-03-31T12:52:06.573Z,99329.25
2023-03-31T12:54:45.013Z,99328.88
2023-03-31T12:57:11.583Z,99312.75
2023-03-31T12:59:41.560Z,99316.47
2023-03-31T13:02:26.732Z,99313.31
2023-03-31T13:04:53.469Z,99316.13
2023-03-31T13:07:29.204Z,99316.47
2023-03-31T13:10:21.577Z,99313.41
2023-03-31T13:13:02.106Z,99307.72
2023-03-31T13:15:30.261Z,99296.50
2023-03-31T13:18:03.266Z,99286.63
2023-03-31T13:20:42.867Z,99286.22
2023-03-31T13:23:12.186Z,99268.41
2023-03-31T13:25:44.047Z,99274.16
2023-03-31T13:28:13.934Z,99254.69
2023-03-31T13:30:40.776Z,99257.34
2023-03-31T13:33:31.855Z,99246.00
2023-03-31T13:36:04.333Z,99245.66
2023-03-31T13:39:03.675Z,99250.88
2023-03-31T13:41:54.694Z,99227.31
2023-03-31T13:44:40.085Z,99241.09
2023-03-31T13:47:18.239Z,99214.94
2023-03-31T13:49:52.947Z,99207.94
2023-03-31T13:52:39.782Z,99213.84
2023-03-31T13:55:43.954Z,99215.69
2023-03-31T13:58:29.497Z,99221.22
2023-03-31T14:01:15.475Z,99222.56
2023-03-31T14:04:19.463Z,99212.31
2023-03-31T14:06:54.734Z,99208.38
2023-03-31T14:09:30.006Z,99206.06
2023-03-31T14:12:00.051Z,99206.63
2023-03-31T14:14:28.021Z,99181.50
2023-03-31T14:16:56.741Z,99195.56
2023-03-31T14:20:10.996Z,99168.34
2023-03-31T14:22:48.209Z,99162.41
2023-03-31T14:25:36.325Z,99152.94
2023-03-31T14:28:34.750Z,99132.91
2023-03-31T14:31:41.243Z,99126.19
2023-03-31T14:34:12.126Z,99117.56
2023-03-31T14:36:57.960Z,99118.13
2023-03-31T14:39:29.558Z,99135.13
2023-03-31T14:42:02.531Z,99119.47
2023-03-31T14:44:30.194Z,99126.56
2023-03-31T14:46:58.525Z,99099.59
2023-03-31T14:49:28.579Z,99091.88
2023-03-31T14:52:00.880Z,99095.75
2023-03-31T14:54:27.465Z,99112.22
2023-03-31T14:56:58.561Z,99106.28
2023-03-31T14:59:29.314Z,99100.97
2023-03-31T15:01:58.779Z,99103.19
2023-03-31T15:04:41.333Z,99100.75
2023-03-31T15:07:08.869Z,99097.28
2023-03-31T15:09:36.486Z,99115.25
2023-03-31T15:12:06.767Z,99098.59
2023-03-31T15:14:41.173Z,99108.00
2023-03-31T15:17:18.055Z,99101.69
2023-03-31T15:19:44.764Z,99096.94
2023-03-31T15:22:16.387Z,99102.59
2023-03-31T15:24:42.999Z,99133.69
2023-03-31T15:27:55.877Z,99109.75
2023-03-31T15:30:25.734Z,99097.44
2023-03-31T15:32:56.838Z,99130.69
2023-03-31T15:35:33.168Z,99089.28
2023-03-31T15:38:01.960Z,99104.66
2023-03-31T15:40:31.434Z,99067.19
2023-03-31T15:43:13.509Z,99068.69
2023-03-31T15:45:54.818Z,99081.00
2023-03-31T15:48:26.058Z,99072.50
2023-03-31T15:50:53.294Z,99072.97
2023-03-31T15:53:28.488Z,99067.72
2023-03-31T15:56:02.303Z,99058.31
2023-03-31T15:58:53.432Z,99064.19
2023-03-31T16:01:20.951Z,99042.66
2023-03-31T16:03:47.953Z,99067.97
2023-03-31T16:06:36.891Z,99053.78
2023-03-31T16:09:09.468Z,99057.75
2023-03-31T16:11:43.988Z,99058.81
2023-03-31T16:14:18.779Z,99063.41
2023-03-31T16:16:52.873Z,99076.97
2023-03-31T16:19:22.310Z,99050.44
2023-03-31T16:21:52.767Z,99057.72
2023-03-31T16:24:21.401Z,99041.81
2023-03-31T16:26:49.033Z,99054.06
2023-03-31T16:29:22.445Z,99050.28
2023-03-31T16:31:49.587Z,99059.47
2023-03-31T16:34:16.737Z,99061.94
2023-03-31T16:36:43.401Z,99083.59
2023-03-31T16:39:10.031Z,99081.69
2023-03-31T16:41:38.106Z,99078.13
2023-03-31T16:44:06.422Z,99074.97
2023-03-31T16:46:33.415Z,99084.97
2023-03-31T16:49:00.161Z,99083.06
2023-03-31T16:51:26.792Z,99099.72
2023-03-31T16:53:53.434Z,99094.91
2023-03-31T16:56:20.236Z,99094.28
2023-03-31T16:58:46.966Z,99084.47
2023-03-31T17:01:13.600Z,99081.53
2023-03-31T17:03:42.258Z,99084.81
2023-03-31T17:06:12.101Z,99080.59
2023-03-31T17:08:39.948Z,99092.59
2023-03-31T17:11:11.723Z,99080.72
2023-03-31T17:13:39.989Z,99096.22
2023-03-31T17:16:17.524Z,99079.09
2023-03-31T17:18:46.003Z,99081.56
2023-03-31T17:21:15.036Z,99082.34
2023-03-31T17:23:42.596Z,99076.84
2023-03-31T17:26:10.599Z,99065.50
2023-03-31T17:28:37.622Z,99058.16
2023-03-31T17:31:18.911Z,99045.41
2023-03-31T17:33:46.289Z,99051.59
2023-03-31T17:36:13.472Z,99039.31
2023-03-31T17:38:40.425Z,99040.34
2023-03-31T17:41:09.051Z,99051.59
2023-03-31T17:43:36.147Z,99039.75
2023-03-31T17:46:13.805Z,99027.88
2023-03-31T17:48:41.179Z,99022.03
2023-03-31T17:51:10.328Z,99046.78
2023-03-31T17:53:37.139Z,99032.41
2023-03-31T17:56:04.660Z,99023.66
2023-03-31T17:58:32.320Z,99051.53
2023-03-31T18:00:59.357Z,99051.53
2023-03-31T18:03:29.243Z,99065.06
2023-03-31T18:05:55.855Z,99055.69
2023-03-31T18:08:23.099Z,99065.03
2023-03-31T18:10:50.595Z,99057.72
2023-03-31T18:13:17.506Z,99057.94
2023-03-31T18:15:51.571Z,99053.34
2023-03-31T18:18:19.330Z,99067.06
2023-03-31T18:20:46.136Z,99080.13
2023-03-31T18:23:13.050Z,99074.47
2023-03-31T18:25:45.265Z,99080.44
2023-03-31T18:28:16.107Z,99077.94
2023-03-31T18:30:43.584Z,99078.50
2023-03-31T18:33:11.047Z,99067.06
2023-03-31T18:35:38.061Z,99066.78
2023-03-31T18:38:05.483Z,99073.22
2023-03-31T18:40:32.367Z,99069.84
2023-03-31T18:42:58.956Z,99075.66
2023-03-31T18:45:28.018Z,99081.66
2023-03-31T18:47:54.953Z,99080.97
2023-03-31T18:50:23.306Z,99085.34
2023-03-31T18:52:52.426Z,99082.19
2023-03-31T18:55:19.376Z,99076.34
2023-03-31T18:57:46.050Z,99071.31
2023-03-31T19:00:13.116Z,99069.44
2023-03-31T19:02:40.086Z,99074.22
2023-03-31T19:05:07.061Z,99080.66
2023-03-31T19:07:34.040Z,99082.84
2023-03-31T19:10:00.637Z,99085.91
2023-03-31T19:12:27.338Z,99086.94
2023-03-31T19:14:53.913Z,99076.72
2023-03-31T19:17:20.468Z,99076.91
2023-03-31T19:19:47.755Z,99081.28
2023-03-31T19:22:14.351Z,99082.66
2023-03-31T19:24:40.978Z,99069.91
2023-03-31T19:27:10.671Z,99073.19
2023-03-31T19:29:37.237Z,99071.69
2023-03-31T19:32:04.326Z,99068.06
2023-03-31T19:34:31.000Z,99073.34
2023-03-31T19:36:57.896Z,99066.00
2023-03-31T19:39:25.920Z,99073.81
2023-03-31T19:41:52.480Z,99068.88
2023-03-31T19:44:19.033Z,99068.28
2023-03-31T19:46:48.154Z,99064.19
2023-03-31T19:49:15.390Z,99063.59
2023-03-31T19:51:42.041Z,99055.09
2023-03-31T19:54:11.456Z,99060.84
2023-03-31T19:56:38.346Z,99065.78
2023-03-31T19:59:05.953Z,99065.00
2023-03-31T20:01:32.798Z,99062.22
2023-03-31T20:03:59.745Z,99064.41
2023-03-31T20:06:28.540Z,99051.97
2023-03-31T20:08:57.434Z,99057.41
2023-03-31T20:11:26.166Z,99054.63
2023-03-31T20:13:53.835Z,99048.91
2023-03-31T20:16:22.861Z,99055.56
2023-03-31T20:19:05.085Z,99056.44
2023-03-31T20:21:34.565Z,99053.78
2023-03-31T20:24:01.420Z,99059.53
2023-03-31T20:26:30.194Z,99048.09
2023-03-31T20:28:58.214Z,99051.13
2023-03-31T20:31:28.206Z,99051.00
2023-03-31T20:33:55.575Z,99048.84
2023-03-31T20:36:25.660Z,99045.47
2023-03-31T20:38:53.937Z,99041.78
2023-03-31T20:41:23.899Z,99038.13
2023-03-31T20:43:50.683Z,99032.25
2023-03-31T20:46:17.708Z,99035.47
2023-03-31T20:48:47.789Z,99030.25
2023-03-31T20:51:17.430Z,99023.03
2023-03-31T20:53:46.806Z,99021.53
2023-03-31T20:56:19.799Z,99016.13
2023-03-31T20:58:47.767Z,99019.84
2023-03-31T21:01:15.062Z,99017.63
2023-03-31T21:03:42.360Z,99017.81
2023-03-31T21:06:12.248Z,99012.94
2023-03-31T21:08:40.947Z,99011.25
2023-03-31T21:11:08.340Z,99008.56
2023-03-31T21:13:35.094Z,99016.16
2023-03-31T21:16:02.274Z,99018.34
2023-03-31T21:18:29.920Z,99002.56
2023-03-31T21:21:04.428Z,99008.44
2023-03-31T21:23:31.846Z,98999.53
2023-03-31T21:26:01.289Z,98998.84
2023-03-31T21:28:31.227Z,98993.66
2023-03-31T21:31:03.672Z,98994.16
2023-03-31T21:33:31.839Z,98990.81
2023-03-31T21:35:59.132Z,98993.50
2023-03-31T21:38:27.904Z,98987.81
2023-03-31T21:40:55.853Z,98995.75
2023-03-31T21:43:23.608Z,98991.03
2023-03-31T21:45:53.343Z,98995.91
2023-03-31T21:48:25.160Z,99010.88
2023-03-31T21:50:54.658Z,99016.63
2023-03-31T21:53:22.902Z,99017.78
2023-03-31T21:55:55.389Z,99018.47
2023-03-31T21:58:28.463Z,99019.28
2023-03-31T22:00:56.184Z,99015.75
2023-03-31T22:03:27.700Z,99012.72
2023-03-31T22:05:58.670Z,99020.66
2023-03-31T22:08:27.170Z,99023.34
2023-03-31T22:10:55.879Z,99025.53
2023-03-31T22:13:23.601Z,99027.03
2023-03-31T22:15:50.850Z,99029.38
2023-03-31T22:18:17.887Z,99017.81
2023-03-31T22:20:46.289Z,99009.56
2023-03-31T22:23:13.072Z,99016.97
2023-03-31T22:25:39.662Z,99009.91
2023-03-31T22:28:07.527Z,99012.75
2023-03-31T22:30:34.227Z,99003.50
2023-03-31T22:33:01.426Z,98995.09
2023-03-31T22:35:28.626Z,98990.75
2023-03-31T22:37:55.643Z,99004.19
2023-03-31T22:40:22.463Z,99003.00
2023-03-31T22:42:49.068Z,98998.47
2023-03-31T22:45:15.815Z,98995.59
2023-03-31T22:47:42.579Z,98993.59
2023-03-31T22:50:11.480Z,98999.81
2023-03-31T22:52:38.091Z,98996.63
2023-03-31T22:55:06.251Z,98998.31
2023-03-31T22:57:33.265Z,98995.78
2023-03-31T22:59:59.993Z,98988.72
2023-03-31T23:02:26.689Z,98987.19
2023-03-31T23:04:53.274Z,98984.69
2023-03-31T23:07:21.871Z,98983.34
2023-03-31T23:09:48.782Z,98989.91
2023-03-31T23:12:15.521Z,98983.50
2023-03-31T23:14:42.128Z,98984.16
2023-03-31T23:17:08.735Z,98987.19
2023-03-31T23:19:35.514Z,98978.63
2023-03-31T23:22:02.639Z,98967.53
2023-03-31T23:24:30.083Z,98968.19
2023-03-31T23:26:56.719Z,98968.88
2023-03-31T23:29:23.375Z,98973.22
2023-03-31T23:31:50.060Z,98979.91
2023-03-31T23:34:17.083Z,98976.72
2023-03-31T23:36:43.641Z,98980.88
2023-03-31T23:39:10.677Z,98978.84
2023-03-31T23:41:37.256Z,98983.22
2023-03-31T23:44:04.820Z,98995.47
2023-03-31T23:46:31.896Z,98999.34
2023-03-31T23:48:59.087Z,99004.03
2023-03-31T23:51:26.176Z,99003.19
2023-03-31T23:53:52.916Z,98989.13
2023-03-31T23:56:19.903Z,98992.31
2023-03-31T23:58:47.121Z,98991.31
